Time;durP1;ratioP1;P1;durP2;ratioP2;P2;SDS_P1;SDS_P2;PMS_P1;PMS_P2;Temp;Humidity;BMP_temperature;BMP_pressure;BME280_temperature;BME280_humidity;BME280_pressure;Samples;Min_cycle;Max_cycle;Signal;HPM_P1;HPM_P2
2022/05/04 00:00:28;;;;;;;11.63;6.90;;;9.70;99.90;;;;;;4451696;28;656400;-65
2022/05/04 00:03:17;;;;;;;14.10;7.13;;;9.70;99.90;;;;;;4429709;28;656744;-66
2022/05/04 00:06:04;;;;;;;13.87;7.07;;;9.90;99.90;;;;;;4448513;28;657509;-66
2022/05/04 00:08:51;;;;;;;12.40;6.70;;;10.00;99.90;;;;;;4427352;28;656621;-65
2022/05/04 00:11:40;;;;;;;20.17;7.00;;;10.20;99.90;;;;;;4450893;28;657776;-66
2022/05/04 00:14:29;;;;;;;11.43;6.53;;;10.40;99.90;;;;;;4422663;28;658320;-65
2022/05/04 00:17:16;;;;;;;14.57;7.57;;;10.60;99.90;;;;;;4429196;28;657540;-65
2022/05/04 00:20:06;;;;;;;14.70;7.10;;;10.70;99.90;;;;;;4447335;28;658671;-65
2022/05/04 00:22:53;;;;;;;16.52;7.72;;;10.70;99.90;;;;;;4421657;28;658701;-66
2022/05/04 00:25:40;;;;;;;12.37;7.63;;;10.70;99.90;;;;;;4426020;28;658404;-65
2022/05/04 00:28:28;;;;;;;10.57;6.87;;;10.60;99.90;;;;;;4450201;28;658270;-66
2022/05/04 00:31:15;;;;;;;16.17;7.23;;;10.60;99.90;;;;;;4437923;28;658146;-66
2022/05/04 00:34:02;;;;;;;18.33;7.43;;;10.60;99.90;;;;;;4451448;28;657552;-66
2022/05/04 00:36:51;;;;;;;15.30;6.53;;;10.70;99.90;;;;;;4445837;28;658327;-66
2022/05/04 00:39:38;;;;;;;11.97;6.73;;;10.60;99.90;;;;;;4425316;28;658859;-66
2022/05/04 00:42:25;;;;;;;9.00;5.83;;;10.60;99.90;;;;;;4427766;28;657609;-66
2022/05/04 00:45:13;;;;;;;10.47;5.87;;;10.60;99.90;;;;;;4445784;28;657521;-66
2022/05/04 00:48:00;;;;;;;12.90;6.70;;;10.60;99.90;;;;;;4437600;28;657443;-65
2022/05/04 00:50:48;;;;;;;15.23;7.00;;;10.60;99.90;;;;;;4446817;28;658736;-65
2022/05/04 00:53:37;;;;;;;11.03;7.03;;;10.60;99.90;;;;;;4427716;28;657782;-66
2022/05/04 00:56:24;;;;;;;11.23;5.82;;;10.60;99.90;;;;;;4446878;28;658165;-66
2022/05/04 00:59:10;;;;;;;10.63;6.10;;;10.50;99.90;;;;;;4422193;28;657522;-66
2022/05/04 01:01:58;;;;;;;14.27;6.57;;;10.50;99.90;;;;;;4444213;28;658882;-66
2022/05/04 01:04:45;;;;;;;10.73;6.13;;;10.40;99.90;;;;;;4432583;28;657526;-66
2022/05/04 01:07:33;;;;;;;10.33;5.90;;;10.50;99.90;;;;;;4448418;28;657712;-66
2022/05/04 01:10:22;;;;;;;9.53;6.20;;;10.40;99.90;;;;;;4434600;28;657729;-66
2022/05/04 01:13:09;;;;;;;10.97;6.03;;;10.40;99.90;;;;;;4446939;28;656668;-66
2022/05/04 01:15:56;;;;;;;13.30;5.50;;;10.40;99.90;;;;;;4426380;28;657639;-66
2022/05/04 01:18:43;;;;;;;8.20;5.47;;;10.20;99.90;;;;;;4438721;28;658411;-65
2022/05/04 01:21:30;;;;;;;11.63;5.67;;;10.20;99.90;;;;;;4423686;28;656944;-65
2022/05/04 01:24:19;;;;;;;11.23;5.30;;;10.10;99.90;;;;;;4443628;28;658898;-66
2022/05/04 01:27:11;;;;;;;8.87;5.33;;;10.00;99.90;;;;;;4407815;28;658645;-66
2022/05/04 01:29:58;;;;;;;9.60;5.00;;;10.00;99.90;;;;;;4426156;28;657826;-66
2022/05/04 01:32:45;;;;;;;11.25;5.25;;;9.90;99.90;;;;;;4429880;28;657256;-66
2022/05/04 01:35:32;;;;;;;8.13;4.93;;;10.00;99.90;;;;;;4449740;28;658162;-66
2022/05/04 01:38:19;;;;;;;13.10;4.97;;;10.00;99.90;;;;;;4446780;28;657300;-65
2022/05/04 01:42:02;;;;;;;7.80;4.70;;;9.90;99.90;;;;;;4426329;28;657615;-66
2022/05/04 01:44:15;;;;;;;9.47;4.60;;;9.90;99.90;;;;;;4405976;28;656513;-66
2022/05/04 01:47:03;;;;;;;9.40;5.20;;;10.00;99.90;;;;;;4449823;28;656691;-65
2022/05/04 01:49:50;;;;;;;10.23;4.90;;;10.00;99.90;;;;;;4435675;28;656473;-66
2022/05/04 01:52:37;;;;;;;12.57;4.97;;;10.10;99.90;;;;;;4449151;28;659031;-66
2022/05/04 01:55:24;;;;;;;11.23;4.93;;;10.10;99.90;;;;;;4448197;28;660270;-66
2022/05/04 01:58:14;;;;;;;9.13;5.20;;;10.00;99.90;;;;;;4428448;28;658707;-66
2022/05/04 02:01:01;;;;;;;9.17;5.00;;;9.90;99.90;;;;;;4427301;28;658313;-66
2022/05/04 02:03:48;;;;;;;13.03;5.07;;;9.80;99.90;;;;;;4448178;28;655637;-66
2022/05/04 02:06:36;;;;;;;10.33;5.10;;;9.80;99.90;;;;;;4429896;28;656439;-66
2022/05/04 02:09:23;;;;;;;9.00;4.93;;;9.80;99.90;;;;;;4449327;28;656225;-66
2022/05/04 02:12:11;;;;;;;8.17;5.23;;;9.70;99.90;;;;;;4430681;28;655872;-66
2022/05/04 02:15:00;;;;;;;9.43;5.27;;;9.60;99.90;;;;;;4448059;28;655942;-65
2022/05/04 02:17:47;;;;;;;8.23;5.10;;;9.50;99.90;;;;;;4427110;28;656346;-66
2022/05/04 02:20:34;;;;;;;8.50;5.30;;;9.20;99.90;;;;;;4450129;28;655441;-65
2022/05/04 02:23:21;;;;;;;10.03;5.80;;;9.20;99.90;;;;;;4428325;28;657198;-66
2022/05/04 02:26:08;;;;;;;8.40;5.00;;;9.10;99.90;;;;;;4448751;28;657275;-66
2022/05/04 02:28:56;;;;;;;11.60;5.63;;;9.10;99.90;;;;;;4431559;28;655968;-66
2022/05/04 02:31:44;;;;;;;12.67;5.87;;;9.00;99.90;;;;;;4451138;28;656858;-66
2022/05/04 02:34:31;;;;;;;13.47;6.73;;;9.00;99.90;;;;;;4423002;28;656365;-66
2022/05/04 02:40:23;;;;;;;10.77;5.40;;;9.00;99.90;;;;;;4420831;28;657127;-66
2022/05/04 02:43:10;;;;;;;14.63;5.33;;;9.10;99.90;;;;;;4428282;28;656861;-66
2022/05/04 02:45:58;;;;;;;11.63;6.17;;;9.00;99.90;;;;;;4445042;28;657654;-65
2022/05/04 02:48:48;;;;;;;11.13;6.00;;;9.00;99.90;;;;;;4422430;28;656524;-65
2022/05/04 02:51:35;;;;;;;14.93;6.10;;;9.00;99.90;;;;;;4433912;28;657095;-66
2022/05/04 02:54:22;;;;;;;10.00;6.47;;;9.00;99.90;;;;;;4448059;28;656858;-66
2022/05/04 02:57:09;;;;;;;11.13;6.70;;;9.10;99.90;;;;;;4437851;28;656882;-66
2022/05/04 02:59:57;;;;;;;10.73;6.10;;;9.10;99.90;;;;;;4417918;28;658027;-65
2022/05/04 03:02:44;;;;;;;11.83;6.67;;;9.10;99.90;;;;;;4435251;28;656368;-65
2022/05/04 03:05:33;;;;;;;12.47;7.00;;;9.10;99.90;;;;;;4418352;28;656584;-66
2022/05/04 03:08:20;;;;;;;15.47;7.17;;;9.20;99.90;;;;;;4434668;28;656637;-65
2022/05/04 03:14:12;;;;;;;12.33;6.07;;;9.20;99.90;;;;;;4394838;28;657659;-66
2022/05/04 03:16:59;;;;;;;9.33;5.80;;;9.20;99.90;;;;;;4447829;28;656915;-66
2022/05/04 03:19:47;;;;;;;22.40;6.70;;;9.20;99.90;;;;;;4425141;28;655239;-65
2022/05/04 03:22:35;;;;;;;12.23;6.70;;;9.20;99.90;;;;;;4445163;28;656897;-65
2022/05/04 03:25:23;;;;;;;15.60;6.47;;;9.30;99.90;;;;;;4424686;28;656395;-65
2022/05/04 03:28:10;;;;;;;15.27;6.57;;;9.30;99.90;;;;;;4431501;28;656314;-65
2022/05/04 03:30:57;;;;;;;14.30;5.97;;;9.30;99.90;;;;;;4449983;28;657928;-65
2022/05/04 03:33:44;;;;;;;9.87;5.97;;;9.40;99.90;;;;;;4445220;28;656336;-66
2022/05/04 03:36:32;;;;;;;9.13;5.13;;;9.40;99.90;;;;;;4430334;28;656192;-66
2022/05/04 03:39:20;;;;;;;11.93;5.50;;;9.30;99.90;;;;;;4452853;28;655838;-65
2022/05/04 03:42:08;;;;;;;11.63;5.20;;;9.30;99.90;;;;;;4427459;28;657398;-65
2022/05/04 03:44:56;;;;;;;8.60;5.07;;;9.40;99.90;;;;;;4415343;28;657030;-66
2022/05/04 03:47:43;;;;;;;9.80;5.00;;;9.80;99.90;;;;;;4434342;28;655755;-66
2022/05/04 03:50:30;;;;;;;8.35;4.82;;;10.00;99.90;;;;;;4419926;28;655451;-66
2022/05/04 03:53:17;;;;;;;8.17;4.70;;;10.00;99.90;;;;;;4428092;28;657891;-65
2022/05/04 03:56:07;;;;;;;8.60;5.00;;;10.10;99.90;;;;;;4429885;28;656653;-65
2022/05/04 03:58:54;;;;;;;9.63;4.93;;;10.20;99.90;;;;;;4431618;28;657341;-66
2022/05/04 04:01:41;;;;;;;10.33;4.87;;;10.30;99.90;;;;;;4410712;28;657340;-66
2022/05/04 04:04:29;;;;;;;13.27;4.17;;;10.30;99.90;;;;;;4433935;28;657835;-66
2022/05/04 04:07:16;;;;;;;10.13;4.83;;;10.30;99.90;;;;;;4413374;28;659147;-65
2022/05/04 04:10:03;;;;;;;10.47;5.00;;;10.30;99.90;;;;;;4435224;28;659035;-65
2022/05/04 04:12:52;;;;;;;9.73;4.53;;;10.30;99.90;;;;;;4413042;28;657673;-66
2022/05/04 04:15:39;;;;;;;9.43;4.70;;;10.30;99.90;;;;;;4430672;28;656780;-66
2022/05/04 04:18:27;;;;;;;9.87;4.77;;;10.30;99.90;;;;;;4406563;28;657759;-66
2022/05/04 04:24:20;;;;;;;13.40;5.10;;;10.30;99.90;;;;;;4409627;28;658212;-65
2022/05/04 04:27:07;;;;;;;14.07;6.03;;;10.40;99.90;;;;;;4408929;28;658865;-66
2022/05/04 04:29:55;;;;;;;13.17;5.33;;;10.30;99.90;;;;;;4432325;28;657458;-66
2022/05/04 04:32:43;;;;;;;13.20;5.63;;;10.30;99.90;;;;;;4407107;28;658722;-66
2022/05/04 04:35:30;;;;;;;15.37;5.50;;;10.40;99.90;;;;;;4421560;28;657783;-66
2022/05/04 04:38:17;;;;;;;9.63;5.43;;;10.50;99.90;;;;;;4432724;28;658081;-66
2022/05/04 04:41:04;;;;;;;9.70;4.90;;;10.70;99.90;;;;;;4431448;28;658138;-66
2022/05/04 04:43:52;;;;;;;9.37;4.83;;;10.70;99.90;;;;;;4423725;28;656860;-66
2022/05/04 04:46:40;;;;;;;7.53;4.57;;;10.80;99.90;;;;;;4447307;28;657447;-66
2022/05/04 04:49:27;;;;;;;9.30;4.43;;;10.90;99.90;;;;;;4417217;28;657709;-66
2022/05/04 04:52:15;;;;;;;12.40;4.50;;;11.10;99.90;;;;;;4442646;28;656620;-66
2022/05/04 04:55:02;;;;;;;11.53;4.43;;;11.40;99.90;;;;;;4446033;28;658829;-65
2022/05/04 04:57:49;;;;;;;8.13;4.40;;;11.50;99.90;;;;;;4442523;28;657508;-66
2022/05/04 05:00:37;;;;;;;9.97;4.63;;;11.60;99.90;;;;;;4429176;28;658193;-65
2022/05/04 05:03:25;;;;;;;10.80;4.40;;;11.80;99.20;;;;;;4448235;28;657380;-66
2022/05/04 05:06:13;;;;;;;9.83;4.30;;;11.90;97.50;;;;;;4420518;28;658973;-66
2022/05/04 05:09:00;;;;;;;10.87;4.53;;;12.10;99.70;;;;;;4428375;28;656440;-66
2022/05/04 05:11:47;;;;;;;6.27;4.23;;;12.10;99.10;;;;;;4441412;28;659072;-66
2022/05/04 05:17:39;;;;;;;9.00;4.50;;;12.40;97.20;;;;;;4416761;28;658135;-66
2022/05/04 05:20:28;;;;;;;7.77;4.17;;;12.50;95.90;;;;;;4419909;28;656824;-66
2022/05/04 05:23:15;;;;;;;8.90;4.47;;;12.60;96.60;;;;;;4427015;28;657023;-66
2022/05/04 05:26:02;;;;;;;9.90;4.40;;;12.70;94.50;;;;;;4447550;28;656846;-66
2022/05/04 05:28:49;;;;;;;11.67;4.27;;;12.80;91.40;;;;;;4441350;28;656362;-65
2022/05/04 05:31:37;;;;;;;5.80;3.80;;;12.90;90.00;;;;;;4421643;28;658811;-65
2022/05/04 05:34:26;;;;;;;6.50;3.77;;;12.90;89.40;;;;;;4441154;28;657237;-66
2022/05/04 05:37:15;;;;;;;9.73;4.43;;;13.10;83.60;;;;;;4424884;28;657738;-66
2022/05/04 05:40:02;;;;;;;9.50;4.40;;;13.20;86.00;;;;;;4418109;28;657960;-66
2022/05/04 05:42:49;;;;;;;9.63;4.20;;;13.30;79.70;;;;;;4427291;28;657020;-66
2022/05/04 05:45:36;;;;;;;6.77;4.20;;;13.50;79.90;;;;;;4400678;28;656642;-66
2022/05/04 05:48:23;;;;;;;11.00;5.70;;;13.60;79.60;;;;;;4414972;28;657246;-65
2022/05/04 05:51:10;;;;;;;12.50;5.97;;;13.70;77.00;;;;;;4395670;28;657483;-66
2022/05/04 05:53:59;;;;;;;9.73;6.13;;;13.80;76.90;;;;;;4413246;28;658123;-66
2022/05/04 05:56:46;;;;;;;10.10;5.88;;;14.00;70.50;;;;;;4406852;28;657867;-66
2022/05/04 05:59:33;;;;;;;16.97;6.47;;;14.00;74.90;;;;;;4421902;28;657735;-66
2022/05/04 06:02:22;;;;;;;12.80;6.43;;;14.10;71.80;;;;;;4394742;28;657644;-66
2022/05/04 06:05:10;;;;;;;14.07;6.63;;;14.10;67.50;;;;;;4417851;28;657838;-66
2022/05/04 06:07:57;;;;;;;15.37;9.23;;;14.20;68.50;;;;;;4393961;28;658583;-66
2022/05/04 06:10:45;;;;;;;14.33;9.10;;;14.30;70.10;;;;;;4418250;28;658238;-66
2022/05/04 06:13:32;;;;;;;20.73;10.17;;;14.50;68.70;;;;;;4399751;28;658734;-66
2022/05/04 06:16:20;;;;;;;20.67;9.93;;;14.70;67.60;;;;;;4412717;28;658900;-66
2022/05/04 06:19:07;;;;;;;16.07;8.57;;;14.60;68.90;;;;;;4426812;28;658587;-66
2022/05/04 06:21:54;;;;;;;16.70;9.83;;;14.70;69.00;;;;;;4419435;28;658511;-66
2022/05/04 06:24:42;;;;;;;15.70;8.73;;;14.60;69.60;;;;;;4400586;28;657787;-66
2022/05/04 06:27:32;;;;;;;13.67;8.10;;;14.70;68.60;;;;;;4420664;28;657735;-66
2022/05/04 06:36:29;;;;;;;17.90;7.50;;;15.10;67.00;;;;;;4399368;28;658015;-66
2022/05/04 06:39:16;;;;;;;14.57;8.13;;;15.10;69.10;;;;;;4406255;28;658577;-65
2022/05/04 06:42:04;;;;;;;20.40;8.63;;;14.90;65.80;;;;;;4416599;28;659318;-66
2022/05/04 06:44:52;;;;;;;11.93;7.60;;;15.10;65.10;;;;;;4403790;28;657858;-66
2022/05/04 06:47:40;;;;;;;14.93;7.10;;;15.20;67.30;;;;;;4415657;28;657870;-66
2022/05/04 06:50:27;;;;;;;11.97;6.47;;;15.30;70.70;;;;;;4413022;28;658931;-66
2022/05/04 06:53:14;;;;;;;10.90;6.60;;;14.90;62.60;;;;;;4420684;28;657462;-66
2022/05/04 06:56:02;;;;;;;11.43;6.33;;;15.00;64.40;;;;;;4404727;28;657959;-66
2022/05/04 06:58:49;;;;;;;12.40;6.70;;;15.10;62.50;;;;;;4429696;28;657831;-66
2022/05/04 07:01:37;;;;;;;12.20;7.00;;;15.30;63.70;;;;;;4402189;28;657473;-66
2022/05/04 07:04:24;;;;;;;10.17;6.00;;;15.40;64.50;;;;;;4428822;28;657854;-66
2022/05/04 07:07:12;;;;;;;13.17;6.20;;;15.60;66.00;;;;;;4397148;28;659263;-66
2022/05/04 07:09:59;;;;;;;8.73;6.30;;;15.70;64.70;;;;;;4427409;28;657644;-66
2022/05/04 07:12:46;;;;;;;13.80;6.60;;;15.90;63.00;;;;;;4402478;28;656395;-66
2022/05/04 07:15:33;;;;;;;13.07;7.57;;;15.90;61.70;;;;;;4428348;28;658800;-66
2022/05/04 07:18:22;;;;;;;11.90;6.03;;;15.90;61.90;;;;;;4400668;28;657304;-66
2022/05/04 07:21:09;;;;;;;11.00;6.07;;;16.20;59.50;;;;;;4426102;28;657898;-66
2022/05/04 07:23:56;;;;;;;14.20;6.10;;;16.30;60.40;;;;;;4410696;28;657677;-66
2022/05/04 07:26:44;;;;;;;14.97;6.23;;;16.50;59.60;;;;;;4426878;28;658373;-66
2022/05/04 07:29:31;;;;;;;10.67;5.60;;;16.60;58.00;;;;;;4406940;28;658501;-66
2022/05/04 07:32:18;;;;;;;12.77;5.80;;;16.70;58.60;;;;;;4428402;28;658906;-66
2022/05/04 07:35:08;;;;;;;14.27;5.70;;;16.80;57.80;;;;;;4409880;28;657573;-66
2022/05/04 07:37:55;;;;;;;8.03;5.50;;;17.00;56.90;;;;;;4404618;28;657664;-66
2022/05/04 07:43:47;;;;;;;8.40;5.20;;;17.20;58.60;;;;;;4392798;28;656494;-66
2022/05/04 07:46:35;;;;;;;12.50;6.30;;;17.50;57.10;;;;;;4413356;28;656742;-66
2022/05/04 07:49:22;;;;;;;11.70;5.15;;;17.60;56.40;;;;;;4426514;28;658782;-66
2022/05/04 07:52:11;;;;;;;12.37;5.87;;;17.90;55.90;;;;;;4419024;28;658927;-66
2022/05/04 07:54:58;;;;;;;20.20;5.30;;;18.00;56.00;;;;;;4400414;28;658812;-66
2022/05/04 07:57:48;;;;;;;10.43;5.83;;;18.20;54.00;;;;;;4395757;28;657565;-66
2022/05/04 08:06:45;;;;;;;9.17;5.37;;;18.10;55.60;;;;;;4395649;28;657426;-66
2022/05/04 08:09:36;;;;;;;9.43;5.67;;;18.00;53.10;;;;;;4427784;28;657930;-66
2022/05/04 08:12:23;;;;;;;8.60;5.10;;;17.80;53.00;;;;;;4402521;28;658325;-66
2022/05/04 08:15:12;;;;;;;10.57;6.13;;;18.20;56.00;;;;;;4406971;28;656569;-66
2022/05/04 08:17:59;;;;;;;13.23;6.10;;;18.50;51.90;;;;;;4434446;28;658402;-66
2022/05/04 08:20:47;;;;;;;9.77;6.00;;;18.40;52.20;;;;;;4402276;28;658088;-66
2022/05/04 08:23:34;;;;;;;10.33;5.53;;;18.80;53.50;;;;;;4435083;28;655520;-66
2022/05/04 08:26:23;;;;;;;12.07;6.30;;;19.00;51.30;;;;;;4405925;28;657552;-66
2022/05/04 08:29:11;;;;;;;9.97;6.10;;;19.20;48.60;;;;;;4432771;28;657577;-66
2022/05/04 08:31:59;;;;;;;11.00;5.70;;;18.80;49.00;;;;;;4432036;28;657387;-66
2022/05/04 08:34:46;;;;;;;12.57;6.37;;;19.10;52.10;;;;;;4410219;28;657457;-66
2022/05/04 08:37:33;;;;;;;9.73;6.00;;;19.00;51.30;;;;;;4425440;28;659122;-66
2022/05/04 08:40:20;;;;;;;13.43;6.70;;;19.20;52.80;;;;;;4411966;28;656969;-66
2022/05/04 08:43:09;;;;;;;9.73;5.73;;;19.40;50.10;;;;;;4429433;28;659353;-66
2022/05/04 08:45:58;;;;;;;9.27;6.00;;;19.20;49.50;;;;;;4412495;28;656687;-66
2022/05/04 08:48:45;;;;;;;9.87;6.40;;;19.50;49.60;;;;;;4410307;28;657626;-66
2022/05/04 08:51:33;;;;;;;8.90;6.17;;;19.70;47.80;;;;;;4430655;28;659594;-66
2022/05/04 08:54:20;;;;;;;12.07;6.27;;;20.10;50.70;;;;;;4408238;28;657369;-66
2022/05/04 08:57:08;;;;;;;9.23;6.00;;;19.90;49.40;;;;;;4427964;28;658165;-66
2022/05/04 08:59:56;;;;;;;14.60;6.87;;;20.70;51.90;;;;;;4415379;28;656792;-66
2022/05/04 09:02:44;;;;;;;17.97;7.07;;;20.80;47.90;;;;;;4426790;28;658833;-66
2022/05/04 09:05:32;;;;;;;13.03;6.33;;;20.30;45.70;;;;;;4408070;28;658571;-66
2022/05/04 09:08:20;;;;;;;10.67;6.40;;;19.70;46.40;;;;;;4427715;28;657632;-66
2022/05/04 09:11:07;;;;;;;11.53;6.27;;;19.90;49.30;;;;;;4395382;28;658958;-66
2022/05/04 09:13:55;;;;;;;11.73;6.70;;;19.80;47.80;;;;;;4416942;28;658813;-66
2022/05/04 09:16:44;;;;;;;12.07;6.43;;;19.50;46.80;;;;;;4424178;28;658513;-66
2022/05/04 09:19:32;;;;;;;10.93;6.43;;;18.80;45.80;;;;;;4389772;28;659353;-66
2022/05/04 09:22:19;;;;;;;14.20;7.00;;;18.60;49.40;;;;;;4417338;28;657406;-66
2022/05/04 09:25:13;;;;;;;12.00;6.47;;;18.20;47.70;;;;;;4398013;28;658647;-66
2022/05/04 09:28:00;;;;;;;13.80;6.97;;;18.80;47.60;;;;;;4385764;28;657676;-66
2022/05/04 09:30:49;;;;;;;15.17;6.83;;;18.90;50.60;;;;;;4423904;28;657923;-66
2022/05/04 09:33:37;;;;;;;9.00;6.40;;;19.80;47.20;;;;;;4399268;28;657788;-66
2022/05/04 09:36:35;;;;;;;13.17;6.90;;;19.20;47.10;;;;;;4418580;28;657625;-66
2022/05/04 09:45:31;;;;;;;14.40;6.70;;;18.50;48.40;;;;;;4412768;28;657686;-66
2022/05/04 09:48:27;;;;;;;13.13;7.60;;;18.40;48.40;;;;;;4433424;28;658939;-66
2022/05/04 09:51:16;;;;;;;11.80;7.00;;;17.80;48.40;;;;;;4412502;28;658320;-66
2022/05/04 09:54:13;;;;;;;13.33;7.17;;;18.10;50.40;;;;;;4417406;28;658336;-66
2022/05/04 09:57:01;;;;;;;12.67;6.30;;;18.10;53.30;;;;;;4392975;28;657861;-66
2022/05/04 09:59:48;;;;;;;13.47;6.20;;;19.30;55.80;;;;;;4436416;28;659410;-66
2022/05/04 10:02:36;;;;;;;13.10;6.43;;;19.50;49.80;;;;;;4417143;28;658129;-66
2022/05/04 10:05:23;;;;;;;12.40;6.60;;;19.60;48.00;;;;;;4436339;28;658522;-66
2022/05/04 10:08:12;;;;;;;9.13;6.67;;;20.60;48.20;;;;;;4413635;28;657864;-66
2022/05/04 10:10:59;;;;;;;14.87;7.00;;;21.00;50.10;;;;;;4436894;28;657528;-66
2022/05/04 10:13:46;;;;;;;10.60;6.90;;;21.10;48.50;;;;;;4418473;28;658244;-66
2022/05/04 10:16:39;;;;;;;14.93;7.30;;;21.90;45.40;;;;;;4436834;28;656689;-66
2022/05/04 10:19:29;;;;;;;11.47;6.53;;;21.50;45.30;;;;;;4392436;28;658552;-66
2022/05/04 10:22:17;;;;;;;10.47;6.40;;;22.10;48.30;;;;;;4415210;28;657595;-66
2022/05/04 10:25:06;;;;;;;9.67;6.50;;;22.20;44.60;;;;;;4434438;28;658057;-66
2022/05/04 10:28:05;;;;;;;12.13;6.33;;;21.10;44.30;;;;;;4417111;28;657107;-65
2022/05/04 10:30:53;;;;;;;13.43;6.47;;;20.30;46.20;;;;;;4394836;28;657517;-65
2022/05/04 10:33:41;;;;;;;10.93;6.30;;;19.60;47.30;;;;;;4422569;28;658069;-65
2022/05/04 10:36:29;;;;;;;13.30;7.03;;;19.60;46.80;;;;;;4431841;28;658804;-65
2022/05/04 10:39:19;;;;;;;8.60;6.40;;;19.10;48.50;;;;;;4420858;28;658149;-65
2022/05/04 10:42:12;;;;;;;14.17;7.27;;;18.80;51.00;;;;;;4418829;28;656958;-65
2022/05/04 10:44:59;;;;;;;14.07;6.50;;;18.60;52.30;;;;;;4417878;28;658150;-65
2022/05/04 10:47:46;;;;;;;11.87;6.67;;;18.80;51.20;;;;;;4411318;28;657585;-65
2022/05/04 10:50:47;;;;;;;13.13;7.30;;;18.80;51.20;;;;;;4434555;28;658786;-65
2022/05/04 10:53:42;;;;;;;10.67;6.60;;;19.10;50.20;;;;;;4413638;28;658310;-65
2022/05/04 10:56:30;;;;;;;11.43;6.93;;;19.00;51.20;;;;;;4413936;28;658295;-65
2022/05/04 10:59:24;;;;;;;14.33;7.07;;;19.10;50.80;;;;;;4420717;28;659414;-65
2022/05/04 11:02:12;;;;;;;14.63;6.87;;;19.20;51.80;;;;;;4390950;28;658774;-65
2022/05/04 11:05:11;;;;;;;15.53;6.80;;;20.10;51.10;;;;;;4434809;28;658064;-64
2022/05/04 11:07:58;;;;;;;10.23;7.27;;;20.50;48.50;;;;;;4419364;28;658597;-66
2022/05/04 11:10:45;;;;;;;12.87;6.40;;;20.80;47.10;;;;;;4423161;28;658247;-66
2022/05/04 11:13:33;;;;;;;13.83;6.67;;;21.30;47.50;;;;;;4439723;28;659498;-65
2022/05/04 11:16:22;;;;;;;12.33;6.47;;;21.80;44.00;;;;;;4419649;28;657943;-65
2022/05/04 11:19:11;;;;;;;14.07;5.93;;;22.20;44.90;;;;;;4443347;28;657332;-65
2022/05/04 11:21:58;;;;;;;10.80;5.70;;;21.60;44.20;;;;;;4420936;28;658774;-65
2022/05/04 11:24:45;;;;;;;11.30;6.03;;;20.70;45.90;;;;;;4423109;28;657301;-65
2022/05/04 11:27:32;;;;;;;12.70;5.67;;;20.30;44.90;;;;;;4434031;28;658842;-65
2022/05/04 11:30:20;;;;;;;10.00;5.87;;;20.60;46.70;;;;;;4433361;28;658236;-65
2022/05/04 11:33:14;;;;;;;10.40;6.13;;;20.30;46.90;;;;;;4448590;28;660662;-65
2022/05/04 11:36:02;;;;;;;14.70;6.93;;;20.30;47.50;;;;;;4415413;28;658200;-65
2022/05/04 11:38:49;;;;;;;19.57;6.10;;;19.80;46.80;;;;;;4441111;28;657772;-66
2022/05/04 11:41:36;;;;;;;12.43;6.27;;;20.80;45.10;;;;;;4419651;28;657365;-65
2022/05/04 11:44:24;;;;;;;9.27;6.27;;;21.60;44.60;;;;;;4424184;28;659072;-65
2022/05/04 11:47:13;;;;;;;9.43;6.57;;;21.80;45.10;;;;;;4404791;28;656540;-66
2022/05/04 11:50:05;;;;;;;12.43;6.40;;;22.50;42.20;;;;;;4403936;28;656256;-65
2022/05/04 11:52:53;;;;;;;8.47;5.73;;;22.00;41.70;;;;;;4406827;28;659674;-65
2022/05/04 11:55:40;;;;;;;9.63;5.70;;;21.70;43.00;;;;;;4420720;28;656501;-65
2022/05/04 11:58:28;;;;;;;10.40;6.03;;;21.70;42.00;;;;;;4431613;28;657085;-66
2022/05/04 12:01:15;;;;;;;11.43;5.93;;;21.10;43.00;;;;;;4415817;28;658091;-65
2022/05/04 12:04:02;;;;;;;12.97;5.87;;;21.40;43.30;;;;;;4435393;28;657432;-65
2022/05/04 12:06:52;;;;;;;9.27;5.67;;;20.90;42.80;;;;;;4430768;28;657503;-65
2022/05/04 12:09:39;;;;;;;8.17;6.30;;;20.90;43.20;;;;;;4431383;28;656980;-65
2022/05/04 12:12:26;;;;;;;9.73;6.17;;;20.20;45.00;;;;;;4405720;28;656696;-65
2022/05/04 12:15:16;;;;;;;12.07;6.10;;;20.00;44.70;;;;;;4424310;28;657576;-65
2022/05/04 12:18:04;;;;;;;10.73;6.00;;;20.00;42.60;;;;;;4405864;28;658639;-65
2022/05/04 12:20:51;;;;;;;10.17;6.00;;;19.30;45.60;;;;;;4408509;28;657656;-65
2022/05/04 12:23:40;;;;;;;10.30;5.83;;;19.10;44.70;;;;;;4428985;28;659031;-65
2022/05/04 12:26:28;;;;;;;8.73;6.20;;;19.00;47.10;;;;;;4403078;28;659006;-65
2022/05/04 12:35:21;;;;;;;10.00;6.17;;;18.30;47.00;;;;;;4373066;28;657385;-65
2022/05/04 12:38:09;;;;;;;10.20;6.00;;;18.20;47.30;;;;;;4426891;28;658198;-65
2022/05/04 12:40:57;;;;;;;11.77;5.43;;;18.30;47.80;;;;;;4406775;28;657447;-65
2022/05/04 12:43:44;;;;;;;7.97;5.30;;;18.40;49.40;;;;;;4432039;28;657368;-65
2022/05/04 12:46:32;;;;;;;8.10;5.27;;;18.60;49.40;;;;;;4431462;28;656464;-65
2022/05/04 12:49:19;;;;;;;8.53;6.50;;;18.80;48.10;;;;;;4448429;28;657128;-65
2022/05/04 12:52:06;;;;;;;10.80;5.73;;;18.70;45.10;;;;;;4426182;28;656461;-65
2022/05/04 12:54:54;;;;;;;10.20;6.53;;;18.90;49.10;;;;;;4444996;28;658139;-65
2022/05/04 12:57:43;;;;;;;8.80;5.63;;;18.80;44.50;;;;;;4427650;28;657977;-65
2022/05/04 13:00:31;;;;;;;7.90;5.03;;;18.80;45.70;;;;;;4441355;28;656419;-65
2022/05/04 13:03:18;;;;;;;8.07;5.50;;;18.70;48.40;;;;;;4450074;28;657307;-65
2022/05/04 13:06:05;;;;;;;9.67;5.60;;;18.90;47.10;;;;;;4431338;28;656827;-65
2022/05/04 13:08:52;;;;;;;12.87;5.37;;;18.80;47.50;;;;;;4451585;28;657013;-65
2022/05/04 13:11:41;;;;;;;10.03;5.20;;;18.70;47.80;;;;;;4441413;28;658075;-65
2022/05/04 13:14:29;;;;;;;6.57;4.70;;;18.90;46.00;;;;;;4447163;28;658062;-65
2022/05/04 13:17:16;;;;;;;13.40;4.57;;;19.20;46.70;;;;;;4422053;28;656584;-65
2022/05/04 13:20:05;;;;;;;9.03;4.60;;;19.70;47.00;;;;;;4442274;28;658089;-65
2022/05/04 13:22:52;;;;;;;7.30;4.57;;;20.20;46.10;;;;;;4427218;28;656645;-65
2022/05/04 13:25:40;;;;;;;10.97;4.20;;;20.60;45.80;;;;;;4445987;28;656499;-66
2022/05/04 13:28:28;;;;;;;7.40;4.60;;;20.50;45.30;;;;;;4427477;28;658685;-65
2022/05/04 13:31:17;;;;;;;14.53;4.80;;;21.00;46.20;;;;;;4433487;28;656385;-65
2022/05/04 13:34:04;;;;;;;7.10;4.80;;;21.20;45.20;;;;;;4440253;28;657679;-65
2022/05/04 13:36:51;;;;;;;7.90;4.90;;;21.40;44.50;;;;;;4425178;28;656505;-65
2022/05/04 13:39:38;;;;;;;5.40;4.43;;;22.50;41.60;;;;;;4442139;28;657540;-65
2022/05/04 13:42:25;;;;;;;9.60;4.40;;;22.90;41.90;;;;;;4423313;28;656642;-66
2022/05/04 13:45:12;;;;;;;9.03;4.67;;;22.50;41.10;;;;;;4446408;28;657328;-65
2022/05/04 13:48:02;;;;;;;8.57;4.50;;;21.80;41.10;;;;;;4441519;28;657473;-65
2022/05/04 13:53:53;;;;;;;7.67;4.70;;;21.70;43.90;;;;;;4422335;28;657290;-65
2022/05/04 13:56:41;;;;;;;8.37;4.60;;;20.70;44.00;;;;;;4425260;28;656499;-65
2022/05/04 13:59:28;;;;;;;8.73;5.03;;;20.40;42.30;;;;;;4442402;28;658659;-65
2022/05/04 14:02:15;;;;;;;11.33;4.53;;;20.60;42.40;;;;;;4432083;28;656881;-65
2022/05/04 14:05:04;;;;;;;11.47;4.77;;;20.10;43.10;;;;;;4444658;28;657612;-66
2022/05/04 14:07:52;;;;;;;18.13;13.10;;;20.50;43.50;;;;;;4427752;28;658551;-65
2022/05/04 14:10:43;;;;;;;9.67;4.27;;;20.30;43.50;;;;;;4441073;28;658631;-65
2022/05/04 14:13:30;;;;;;;7.17;4.37;;;20.20;44.80;;;;;;4403913;28;656857;-65
2022/05/04 14:16:17;;;;;;;6.73;5.03;;;19.80;46.40;;;;;;4433738;28;656992;-66
2022/05/04 14:19:04;;;;;;;8.70;4.53;;;19.70;44.90;;;;;;4445178;28;656265;-66
2022/05/04 14:21:53;;;;;;;8.27;4.43;;;19.40;45.70;;;;;;4427460;28;657095;-65
2022/05/04 14:24:40;;;;;;;11.97;5.00;;;19.30;46.50;;;;;;4414421;28;656260;-65
2022/05/04 14:27:27;;;;;;;10.00;5.07;;;19.50;44.00;;;;;;4433425;28;658351;-65
2022/05/04 14:30:15;;;;;;;11.87;5.20;;;19.30;46.20;;;;;;4445004;28;657540;-65
2022/05/04 14:33:03;;;;;;;11.53;4.97;;;19.50;45.80;;;;;;4439633;28;659180;-65
2022/05/04 14:35:50;;;;;;;8.73;5.13;;;19.30;43.50;;;;;;4416221;28;658689;-65
2022/05/04 14:38:39;;;;;;;12.17;5.20;;;19.00;46.00;;;;;;4443218;28;657000;-65
2022/05/04 14:41:26;;;;;;;11.53;4.63;;;18.70;46.50;;;;;;4417546;28;657355;-65
2022/05/04 14:44:14;;;;;;;9.97;5.20;;;18.70;45.30;;;;;;4444821;28;658330;-65
2022/05/04 14:47:01;;;;;;;8.23;5.03;;;18.60;45.40;;;;;;4428052;28;656543;-65
2022/05/04 14:49:48;;;;;;;13.03;5.47;;;18.50;43.90;;;;;;4444535;28;657408;-65
2022/05/04 14:52:35;;;;;;;12.07;4.67;;;18.80;44.50;;;;;;4421421;28;657862;-65
2022/05/04 14:55:24;;;;;;;12.77;5.10;;;18.80;47.90;;;;;;4440693;28;657696;-66
2022/05/04 14:58:11;;;;;;;11.53;4.77;;;19.20;46.80;;;;;;4419634;28;657641;-65